Time;durP1;ratioP1;P1;durP2;ratioP2;P2;SDS_P1;SDS_P2;PMS_P1;PMS_P2;Temp;Humidity;BMP_temperature;BMP_pressure;BME280_temperature;BME280_humidity;BME280_pressure;Samples;Min_cycle;Max_cycle;Signal;HPM_P1;HPM_P2
2021/07/18 00:00:18;;;;;;;8.40;4.75;;;;;;;;;;5074437;28;20130;-44
2021/07/18 00:02:44;;;;;;;7.20;4.38;;;;;;;;;;5074293;28;20044;-44
2021/07/18 00:05:10;;;;;;;11.00;5.53;;;;;;;;;;5073295;28;20388;-44
2021/07/18 00:07:37;;;;;;;17.45;8.95;;;;;;;;;;5074581;28;20016;-44
2021/07/18 00:10:04;;;;;;;13.60;10.35;;;;;;;;;;5074418;28;20073;-44
2021/07/18 00:12:30;;;;;;;18.83;13.40;;;;;;;;;;5072893;28;20457;-44
2021/07/18 00:14:57;;;;;;;8.98;5.80;;;;;;;;;;5074018;28;20086;-45
2021/07/18 00:17:23;;;;;;;13.82;8.20;;;;;;;;;;5074192;28;20107;-44
2021/07/18 00:19:49;;;;;;;26.73;18.05;;;;;;;;;;5073155;28;20028;-44
2021/07/18 00:22:15;;;;;;;14.90;11.35;;;;;;;;;;5074093;28;20052;-44
2021/07/18 00:24:41;;;;;;;17.65;12.85;;;;;;;;;;5074013;28;20483;-44
2021/07/18 00:27:08;;;;;;;7.05;5.72;;;;;;;;;;5074023;28;20062;-45
2021/07/18 00:29:34;;;;;;;3.35;2.97;;;;;;;;;;5073915;28;20024;-45
2021/07/18 00:32:00;;;;;;;4.75;3.20;;;;;;;;;;5073883;28;20033;-44
2021/07/18 00:34:26;;;;;;;17.90;9.55;;;;;;;;;;5073700;28;20028;-44
2021/07/18 00:36:52;;;;;;;27.23;15.68;;;;;;;;;;5073939;28;20381;-45
2021/07/18 00:39:18;;;;;;;31.83;17.63;;;;;;;;;;5073779;28;20027;-45
2021/07/18 00:41:45;;;;;;;25.35;13.63;;;;;;;;;;5073725;28;20108;-44
2021/07/18 00:44:11;;;;;;;41.35;20.92;;;;;;;;;;5073738;28;20116;-44
2021/07/18 00:46:37;;;;;;;11.93;5.25;;;;;;;;;;5073619;28;20050;-44
2021/07/18 00:49:03;;;;;;;10.70;4.72;;;;;;;;;;5073901;28;20456;-43
2021/07/18 00:51:30;;;;;;;15.43;6.35;;;;;;;;;;5073408;28;20077;-44
2021/07/18 00:53:56;;;;;;;14.27;9.40;;;;;;;;;;5073730;28;20060;-44
2021/07/18 00:56:22;;;;;;;7.38;5.85;;;;;;;;;;5073653;28;20020;-44
2021/07/18 00:58:53;;;;;;;44.60;33.38;;;;;;;;;;5073509;28;20062;-45
2021/07/18 01:01:19;;;;;;;;;;;;;;;;;;5073881;28;20020;-42
2021/07/18 01:03:45;;;;;;;9.73;6.32;;;;;;;;;;5073396;28;19988;-44
2021/07/18 01:06:14;;;;;;;7.03;4.25;;;;;;;;;;5073140;28;20074;-44
2021/07/18 01:08:40;;;;;;;7.70;3.70;;;;;;;;;;5073219;28;20029;-44
2021/07/18 01:11:06;;;;;;;6.95;3.95;;;;;;;;;;5073331;28;20393;-45
2021/07/18 01:13:32;;;;;;;5.90;4.50;;;;;;;;;;5073529;28;20028;-44
2021/07/18 01:15:58;;;;;;;9.90;6.40;;;;;;;;;;5073091;28;20044;-43
2021/07/18 01:18:24;;;;;;;5.80;4.90;;;;;;;;;;5073441;28;20033;-46
2021/07/18 01:20:51;;;;;;;9.60;6.68;;;;;;;;;;5073132;28;20468;-45
2021/07/18 01:23:17;;;;;;;8.63;6.40;;;;;;;;;;5073230;28;20021;-46
2021/07/18 01:25:44;;;;;;;13.13;6.60;;;;;;;;;;5073518;28;20035;-45
2021/07/18 01:28:13;;;;;;;15.35;9.57;;;;;;;;;;5073398;28;20490;-41
2021/07/18 01:30:40;;;;;;;6.93;5.35;;;;;;;;;;5074595;28;20051;-44
2021/07/18 01:33:07;;;;;;;16.42;10.18;;;;;;;;;;5079741;28;20059;-44
2021/07/18 01:35:33;;;;;;;11.35;5.80;;;;;;;;;;5079882;28;20024;-44
2021/07/18 01:38:00;;;;;;;14.52;11.70;;;;;;;;;;5080010;28;20028;-43
2021/07/18 01:40:26;;;;;;;19.27;14.88;;;;;;;;;;5079801;28;20016;-42
2021/07/18 01:42:54;;;;;;;13.95;10.50;;;;;;;;;;5079698;28;20350;-44
2021/07/18 01:45:20;;;;;;;32.00;24.17;;;;;;;;;;5079976;28;20143;-43
2021/07/18 01:47:47;;;;;;;5.72;4.72;;;;;;;;;;5079733;28;20086;-43
2021/07/18 01:50:14;;;;;;;8.77;4.78;;;;;;;;;;5079693;28;20464;-43
2021/07/18 01:52:40;;;;;;;11.02;7.90;;;;;;;;;;5079638;28;20527;-43
2021/07/18 01:55:06;;;;;;;14.40;7.70;;;;;;;;;;5079855;28;20023;-43
2021/07/18 01:57:32;;;;;;;12.45;10.00;;;;;;;;;;5079691;28;20024;-42
2021/07/18 01:59:58;;;;;;;9.77;6.38;;;;;;;;;;5079655;28;20024;-43
2021/07/18 02:02:24;;;;;;;8.68;6.22;;;;;;;;;;5079589;28;20028;-44
2021/07/18 02:04:51;;;;;;;5.47;4.05;;;;;;;;;;5079594;28;20020;-43
2021/07/18 02:07:19;;;;;;;5.85;3.95;;;;;;;;;;5079677;28;20388;-43
2021/07/18 02:09:45;;;;;;;3.92;3.15;;;;;;;;;;5079532;28;20024;-44
2021/07/18 02:12:11;;;;;;;8.77;3.17;;;;;;;;;;5079379;28;20041;-44
2021/07/18 02:14:39;;;;;;;4.32;2.97;;;;;;;;;;5079333;28;20041;-43
2021/07/18 02:17:05;;;;;;;6.82;3.13;;;;;;;;;;5079362;28;20487;-43
2021/07/18 02:19:32;;;;;;;3.63;2.97;;;;;;;;;;5079410;28;20025;-43
2021/07/18 02:21:59;;;;;;;3.92;2.97;;;;;;;;;;5079305;28;20047;-43
2021/07/18 02:24:25;;;;;;;3.60;3.00;;;;;;;;;;5079433;28;20123;-43
2021/07/18 02:26:51;;;;;;;4.68;2.78;;;;;;;;;;5079546;28;20383;-44
2021/07/18 02:29:19;;;;;;;4.00;3.25;;;;;;;;;;5079378;28;20044;-43
2021/07/18 02:31:46;;;;;;;4.93;3.80;;;;;;;;;;5079269;28;20026;-44
2021/07/18 02:34:12;;;;;;;3.75;3.38;;;;;;;;;;5079548;28;20036;-43
2021/07/18 02:36:38;;;;;;;3.95;3.65;;;;;;;;;;5079262;28;20464;-44
2021/07/18 02:39:05;;;;;;;7.35;3.30;;;;;;;;;;5079234;28;20028;-44
2021/07/18 02:41:34;;;;;;;6.82;3.67;;;;;;;;;;5078363;28;20032;-44
2021/07/18 02:44:01;;;;;;;5.43;2.90;;;;;;;;;;5075507;28;20083;-43
2021/07/18 02:46:27;;;;;;;6.68;3.72;;;;;;;;;;5076082;28;20029;-44
2021/07/18 02:48:53;;;;;;;6.18;3.30;;;;;;;;;;5075868;28;20033;-43
2021/07/18 02:51:19;;;;;;;4.25;3.30;;;;;;;;;;5075759;28;20025;-44
2021/07/18 02:53:45;;;;;;;6.85;3.53;;;;;;;;;;5075936;28;20032;-43
2021/07/18 02:56:11;;;;;;;5.93;2.97;;;;;;;;;;5075779;28;20020;-44
2021/07/18 02:58:37;;;;;;;4.00;2.88;;;;;;;;;;5075807;28;20025;-43
2021/07/18 03:01:04;;;;;;;5.00;2.90;;;;;;;;;;5075580;28;20039;-44
2021/07/18 03:03:30;;;;;;;3.13;2.80;;;;;;;;;;5075646;28;20021;-43
2021/07/18 03:05:56;;;;;;;3.28;2.90;;;;;;;;;;5075636;28;20469;-43
2021/07/18 03:08:22;;;;;;;3.85;3.13;;;;;;;;;;5075591;28;20021;-43
2021/07/18 03:10:48;;;;;;;4.93;3.65;;;;;;;;;;5075532;28;20060;-43
2021/07/18 03:13:14;;;;;;;5.50;3.50;;;;;;;;;;5075628;28;20033;-44
2021/07/18 03:15:40;;;;;;;3.47;2.60;;;;;;;;;;5075389;28;20496;-43
2021/07/18 03:18:08;;;;;;;4.32;2.90;;;;;;;;;;5075567;28;20036;-43
2021/07/18 03:20:34;;;;;;;4.72;3.30;;;;;;;;;;5075512;28;20025;-44
2021/07/18 03:23:00;;;;;;;2.85;2.55;;;;;;;;;;5075611;28;20060;-44
2021/07/18 03:25:26;;;;;;;6.30;2.97;;;;;;;;;;5075404;28;20032;-43
2021/07/18 03:27:52;;;;;;;2.88;2.63;;;;;;;;;;5075253;28;20029;-44
2021/07/18 03:30:20;;;;;;;6.60;2.70;;;;;;;;;;5075333;28;20024;-44
2021/07/18 03:32:47;;;;;;;12.40;4.90;;;;;;;;;;5075393;28;20068;-45
2021/07/18 03:35:13;;;;;;;10.75;4.72;;;;;;;;;;5075379;28;20020;-51
2021/07/18 03:37:39;;;;;;;9.82;4.60;;;;;;;;;;5075048;28;20031;-47
2021/07/18 03:40:07;;;;;;;7.55;3.85;;;;;;;;;;5075088;28;20389;-46
2021/07/18 03:42:33;;;;;;;5.60;4.03;;;;;;;;;;5075101;28;20486;-44
2021/07/18 03:44:59;;;;;;;7.05;3.97;;;;;;;;;;5075214;28;20032;-44
2021/07/18 03:47:25;;;;;;;7.78;4.10;;;;;;;;;;5074844;28;20477;-44
2021/07/18 03:49:51;;;;;;;6.95;3.58;;;;;;;;;;5075154;28;20051;-44
2021/07/18 03:52:17;;;;;;;7.93;4.28;;;;;;;;;;5074667;28;20417;-43
2021/07/18 03:54:43;;;;;;;6.82;4.32;;;;;;;;;;5074631;28;20035;-44
2021/07/18 03:57:09;;;;;;;8.30;3.85;;;;;;;;;;5074749;28;20358;-44
2021/07/18 03:59:35;;;;;;;5.28;3.05;;;;;;;;;;5074876;28;20024;-44
2021/07/18 04:02:02;;;;;;;5.22;3.13;;;;;;;;;;5074737;28;20484;-44
2021/07/18 04:04:28;;;;;;;4.18;2.72;;;;;;;;;;5074973;28;20025;-43
2021/07/18 04:06:54;;;;;;;4.88;3.00;;;;;;;;;;5074818;28;20027;-43
2021/07/18 04:09:20;;;;;;;4.13;2.75;;;;;;;;;;5074711;28;20035;-43
2021/07/18 04:11:46;;;;;;;5.18;3.38;;;;;;;;;;5074274;28;20476;-43
2021/07/18 04:14:12;;;;;;;3.95;2.97;;;;;;;;;;5074359;28;20028;-43
2021/07/18 04:16:39;;;;;;;4.53;3.08;;;;;;;;;;5074291;28;20052;-43
2021/07/18 04:19:05;;;;;;;5.82;2.85;;;;;;;;;;5074683;28;20403;-44
2021/07/18 04:21:31;;;;;;;4.68;2.70;;;;;;;;;;5074411;28;20098;-43
2021/07/18 04:23:57;;;;;;;6.65;2.70;;;;;;;;;;5074447;28;20048;-43
2021/07/18 04:26:23;;;;;;;4.82;3.20;;;;;;;;;;5074210;28;20071;-43
2021/07/18 04:28:49;;;;;;;5.32;3.03;;;;;;;;;;5074176;28;20032;-44
2021/07/18 04:31:15;;;;;;;4.47;3.03;;;;;;;;;;5074172;28;20473;-44
2021/07/18 04:33:43;;;;;;;5.13;3.20;;;;;;;;;;5074019;28;20047;-43
2021/07/18 04:36:09;;;;;;;5.57;3.50;;;;;;;;;;5074085;28;20364;-43
2021/07/18 04:38:35;;;;;;;4.97;3.13;;;;;;;;;;5074102;28;20079;-44
2021/07/18 04:41:01;;;;;;;5.60;3.50;;;;;;;;;;5074005;28;20532;-44
2021/07/18 04:43:28;;;;;;;5.80;3.28;;;;;;;;;;5074013;28;20046;-44
2021/07/18 04:45:54;;;;;;;5.32;2.92;;;;;;;;;;5073763;28;20025;-44
2021/07/18 04:48:20;;;;;;;7.05;3.40;;;;;;;;;;5073797;28;20184;-44
2021/07/18 04:50:47;;;;;;;8.55;5.07;;;;;;;;;;5073764;28;20353;-44
2021/07/18 04:53:13;;;;;;;3.42;2.90;;;;;;;;;;5073810;28;20040;-44
2021/07/18 04:55:41;;;;;;;10.80;6.43;;;;;;;;;;5073730;28;20016;-44
2021/07/18 04:58:07;;;;;;;6.22;4.13;;;;;;;;;;5073742;28;20024;-43
2021/07/18 05:00:33;;;;;;;6.43;3.90;;;;;;;;;;5073700;28;20048;-44
2021/07/18 05:02:59;;;;;;;4.20;3.10;;;;;;;;;;5073739;28;20384;-44
2021/07/18 05:05:25;;;;;;;6.80;4.00;;;;;;;;;;5073242;28;20025;-44
2021/07/18 05:07:51;;;;;;;3.97;3.50;;;;;;;;;;5073353;28;20027;-44
2021/07/18 05:10:19;;;;;;;5.82;3.35;;;;;;;;;;5073493;28;20028;-44
2021/07/18 05:12:45;;;;;;;5.15;3.15;;;;;;;;;;5073425;28;20040;-44
2021/07/18 05:15:11;;;;;;;6.82;3.30;;;;;;;;;;5073199;28;20055;-43
2021/07/18 05:17:37;;;;;;;3.53;3.17;;;;;;;;;;5073271;28;20025;-45
2021/07/18 05:20:04;;;;;;;7.63;3.45;;;;;;;;;;5073418;28;20024;-43
2021/07/18 05:22:30;;;;;;;4.65;3.42;;;;;;;;;;5073269;28;20036;-43
2021/07/18 05:24:56;;;;;;;6.00;3.70;;;;;;;;;;5073497;28;20089;-44
2021/07/18 05:27:23;;;;;;;5.70;3.58;;;;;;;;;;5073414;28;20105;-43
2021/07/18 05:29:49;;;;;;;4.75;3.55;;;;;;;;;;5073285;28;20502;-43
2021/07/18 05:32:15;;;;;;;5.55;3.45;;;;;;;;;;5073132;28;20039;-44
2021/07/18 05:34:41;;;;;;;8.30;3.95;;;;;;;;;;5073555;28;20393;-44
2021/07/18 05:37:07;;;;;;;7.80;4.45;;;;;;;;;;5073249;28;20108;-43
2021/07/18 05:39:34;;;;;;;6.93;4.68;;;;;;;;;;5073068;28;20024;-44
2021/07/18 05:42:00;;;;;;;5.88;4.53;;;;;;;;;;5073252;28;20112;-43
2021/07/18 05:44:27;;;;;;;8.55;5.40;;;;;;;;;;5073144;28;20136;-44
2021/07/18 05:46:53;;;;;;;7.20;4.85;;;;;;;;;;5073095;28;20037;-44
2021/07/18 05:49:19;;;;;;;6.97;4.95;;;;;;;;;;5073223;28;20093;-43
2021/07/18 05:51:46;;;;;;;7.03;4.90;;;;;;;;;;5072818;28;20039;-44
2021/07/18 05:54:12;;;;;;;6.95;5.15;;;;;;;;;;5073102;28;20032;-44
2021/07/18 05:56:38;;;;;;;7.43;5.10;;;;;;;;;;5072961;28;20017;-45
2021/07/18 05:59:06;;;;;;;6.93;4.85;;;;;;;;;;5073185;28;20025;-44
2021/07/18 06:01:32;;;;;;;7.43;5.28;;;;;;;;;;5073076;28;20019;-44
2021/07/18 06:03:59;;;;;;;6.32;5.32;;;;;;;;;;5073128;28;20496;-47
2021/07/18 06:06:25;;;;;;;6.63;4.90;;;;;;;;;;5073188;28;20070;-43
2021/07/18 06:08:51;;;;;;;10.10;5.90;;;;;;;;;;5072999;28;20472;-43
2021/07/18 06:11:18;;;;;;;9.73;6.00;;;;;;;;;;5073202;28;20102;-43
2021/07/18 06:13:44;;;;;;;10.07;6.45;;;;;;;;;;5072696;28;20082;-43
2021/07/18 06:16:10;;;;;;;12.25;6.55;;;;;;;;;;5072694;28;20056;-45
2021/07/18 06:18:36;;;;;;;10.23;5.93;;;;;;;;;;5075399;28;20024;-45
2021/07/18 06:21:02;;;;;;;8.88;6.55;;;;;;;;;;5076614;28;20031;-44
2021/07/18 06:23:28;;;;;;;22.92;14.50;;;;;;;;;;5076299;28;20476;-44
2021/07/18 06:25:54;;;;;;;11.15;7.38;;;;;;;;;;5076523;28;20029;-44
2021/07/18 06:28:20;;;;;;;8.80;6.13;;;;;;;;;;5076545;28;20091;-44
2021/07/18 06:30:47;;;;;;;9.40;6.68;;;;;;;;;;5075242;28;20032;-44
2021/07/18 06:33:13;;;;;;;13.68;6.03;;;;;;;;;;5076407;28;20039;-43
2021/07/18 06:35:39;;;;;;;8.68;6.53;;;;;;;;;;5076318;28;20066;-43
2021/07/18 06:38:05;;;;;;;8.90;6.55;;;;;;;;;;5076019;28;20025;-44
2021/07/18 06:40:31;;;;;;;11.45;6.32;;;;;;;;;;5076252;28;20025;-44
2021/07/18 06:42:57;;;;;;;11.70;6.40;;;;;;;;;;5076285;28;20051;-44
2021/07/18 06:45:23;;;;;;;13.07;7.07;;;;;;;;;;5076220;28;20028;-44
2021/07/18 06:47:50;;;;;;;10.25;6.70;;;;;;;;;;5076000;28;20046;-44
2021/07/18 06:50:17;;;;;;;10.10;6.85;;;;;;;;;;5076250;28;20446;-44
2021/07/18 06:52:43;;;;;;;8.45;6.07;;;;;;;;;;5075880;28;20021;-44
2021/07/18 06:55:09;;;;;;;9.20;6.63;;;;;;;;;;5076128;28;20029;-42
2021/07/18 06:57:36;;;;;;;11.80;6.97;;;;;;;;;;5074641;28;20020;-44
2021/07/18 07:00:02;;;;;;;13.02;8.38;;;;;;;;;;5075901;28;20111;-44
2021/07/18 07:02:28;;;;;;;9.43;7.18;;;;;;;;;;5075970;28;20021;-44
2021/07/18 07:04:54;;;;;;;11.15;7.10;;;;;;;;;;5075915;28;20048;-44
2021/07/18 07:07:20;;;;;;;10.40;6.72;;;;;;;;;;5075743;28;20074;-44
2021/07/18 07:09:46;;;;;;;10.45;6.90;;;;;;;;;;5075567;28;20381;-44
2021/07/18 07:12:12;;;;;;;9.52;6.55;;;;;;;;;;5075464;28;20135;-44
2021/07/18 07:14:38;;;;;;;11.07;6.97;;;;;;;;;;5075461;28;20033;-44
2021/07/18 07:17:04;;;;;;;15.85;10.68;;;;;;;;;;5075604;28;20032;-45
2021/07/18 07:19:32;;;;;;;10.95;7.10;;;;;;;;;;5075717;28;20044;-45
2021/07/18 07:21:58;;;;;;;12.68;9.77;;;;;;;;;;5075389;28;20020;-44
2021/07/18 07:24:27;;;;;;;11.70;8.27;;;;;;;;;;5075241;28;20028;-44
2021/07/18 07:26:53;;;;;;;12.05;7.35;;;;;;;;;;5075559;28;20082;-45
2021/07/18 07:29:19;;;;;;;9.35;6.07;;;;;;;;;;5074954;28;20020;-44
2021/07/18 07:31:45;;;;;;;10.13;6.40;;;;;;;;;;5075267;28;20056;-45
2021/07/18 07:34:12;;;;;;;11.48;6.97;;;;;;;;;;5075064;28;20082;-45
2021/07/18 07:36:38;;;;;;;7.43;5.50;;;;;;;;;;5075241;28;20374;-45
2021/07/18 07:39:04;;;;;;;8.63;5.82;;;;;;;;;;5074962;28;20024;-45
2021/07/18 07:41:30;;;;;;;10.32;6.70;;;;;;;;;;5074978;28;20046;-45
2021/07/18 07:43:59;;;;;;;12.50;6.75;;;;;;;;;;5075380;28;20496;-45
2021/07/18 07:46:25;;;;;;;11.75;6.88;;;;;;;;;;5074943;28;20093;-45
2021/07/18 07:48:51;;;;;;;9.63;6.80;;;;;;;;;;5074751;28;20035;-45
2021/07/18 07:51:20;;;;;;;11.85;8.27;;;;;;;;;;5075084;28;20475;-49
2021/07/18 07:53:46;;;;;;;10.30;7.53;;;;;;;;;;5074720;28;20049;-44
2021/07/18 07:56:12;;;;;;;15.70;8.77;;;;;;;;;;5074754;28;20020;-44
2021/07/18 07:58:38;;;;;;;14.75;8.52;;;;;;;;;;5074851;28;20021;-46
2021/07/18 08:01:05;;;;;;;13.45;9.30;;;;;;;;;;5074770;28;20123;-44
2021/07/18 08:03:31;;;;;;;11.90;9.52;;;;;;;;;;5074609;28;20025;-44
2021/07/18 08:05:57;;;;;;;20.60;14.13;;;;;;;;;;5074678;28;20028;-48
2021/07/18 08:08:23;;;;;;;23.42;15.15;;;;;;;;;;5074521;28;20028;-45
2021/07/18 08:10:49;;;;;;;18.15;13.80;;;;;;;;;;5074523;28;20025;-46
2021/07/18 08:13:15;;;;;;;36.03;24.08;;;;;;;;;;5055096;28;20469;-44
2021/07/18 08:15:41;;;;;;;35.30;27.20;;;;;;;;;;5053678;28;20045;-43
2021/07/18 08:18:07;;;;;;;17.90;12.73;;;;;;;;;;5053628;28;20033;-43
2021/07/18 08:20:33;;;;;;;23.02;17.40;;;;;;;;;;5053965;28;20036;-44
2021/07/18 08:22:59;;;;;;;11.98;8.60;;;;;;;;;;5053581;28;20070;-43
2021/07/18 08:25:27;;;;;;;14.48;10.18;;;;;;;;;;5053654;28;20013;-44
2021/07/18 08:27:53;;;;;;;13.68;9.38;;;;;;;;;;5053612;28;20497;-44
2021/07/18 08:30:20;;;;;;;10.27;7.53;;;;;;;;;;5053451;28;20083;-43
2021/07/18 08:32:46;;;;;;;12.68;8.13;;;;;;;;;;5053181;28;20064;-44
2021/07/18 08:35:13;;;;;;;21.13;12.38;;;;;;;;;;5053418;28;20032;-44
2021/07/18 08:37:39;;;;;;;35.88;27.00;;;;;;;;;;5052542;28;20433;-44
2021/07/18 08:40:06;;;;;;;39.35;25.10;;;;;;;;;;5052970;28;20477;-44
2021/07/18 08:42:36;;;;;;;14.88;11.57;;;;;;;;;;5053672;28;20029;-43
2021/07/18 08:45:03;;;;;;;17.75;11.52;;;;;;;;;;5053748;28;20054;-44
2021/07/18 08:47:29;;;;;;;21.65;16.70;;;;;;;;;;5053555;28;20120;-46
2021/07/18 08:49:55;;;;;;;31.02;25.80;;;;;;;;;;5053932;28;20052;-43
2021/07/18 08:52:22;;;;;;;17.63;12.95;;;;;;;;;;5053074;28;20540;-44
2021/07/18 08:54:49;;;;;;;7.65;6.28;;;;;;;;;;5052958;28;20029;-43
2021/07/18 08:57:18;;;;;;;24.85;11.48;;;;;;;;;;5053192;28;20028;-43
2021/07/18 08:59:44;;;;;;;32.55;24.08;;;;;;;;;;5053348;28;20021;-45
2021/07/18 09:02:10;;;;;;;35.83;23.95;;;;;;;;;;5053421;28;20078;-45
2021/07/18 09:04:36;;;;;;;10.18;6.85;;;;;;;;;;5053368;28;20496;-45
2021/07/18 09:07:07;;;;;;;33.17;26.15;;;;;;;;;;5053635;28;20028;-45
2021/07/18 09:09:33;;;;;;;18.90;13.07;;;;;;;;;;5053601;28;20025;-45
2021/07/18 09:12:01;;;;;;;14.85;10.30;;;;;;;;;;5053368;28;20025;-44
2021/07/18 09:14:34;;;;;;;33.72;18.85;;;;;;;;;;5053186;28;20028;-45
2021/07/18 09:17:01;;;;;;;20.58;12.52;;;;;;;;;;5053324;28;20029;-44
2021/07/18 09:19:27;;;;;;;12.70;8.02;;;;;;;;;;5053253;28;20029;-44
2021/07/18 09:22:06;;;;;;;21.77;16.33;;;;;;;;;;5053097;28;20028;-44
2021/07/18 09:24:33;;;;;;;7.25;5.10;;;;;;;;;;5053291;28;20033;-43
2021/07/18 09:27:11;;;;;;;12.35;8.25;;;;;;;;;;5053121;28;20021;-43
2021/07/18 09:29:39;;;;;;;5.85;4.10;;;;;;;;;;5052614;28;20487;-44
2021/07/18 09:32:09;;;;;;;6.85;4.25;;;;;;;;;;5052912;28;20029;-44
2021/07/18 09:34:36;;;;;;;7.05;3.40;;;;;;;;;;5053102;28;20021;-43
2021/07/18 09:37:16;;;;;;;4.13;2.85;;;;;;;;;;5052847;28;20031;-45
2021/07/18 09:39:49;;;;;;;5.45;3.33;;;;;;;;;;5052983;28;20033;-44
2021/07/18 09:42:25;;;;;;;5.95;3.30;;;;;;;;;;5053024;28;20067;-43
2021/07/18 09:44:51;;;;;;;8.80;3.20;;;;;;;;;;5053002;28;20112;-48
2021/07/18 09:47:18;;;;;;;11.13;3.45;;;;;;;;;;5053298;28;20025;-46
2021/07/18 09:49:44;;;;;;;12.25;3.10;;;;;;;;;;5053001;28;20114;-47
2021/07/18 09:52:18;;;;;;;11.90;8.43;;;;;;;;;;5055065;28;20025;-44
2021/07/18 09:54:44;;;;;;;31.70;15.32;;;;;;;;;;5056924;28;20419;-51
2021/07/18 09:57:11;;;;;;;7.78;4.63;;;;;;;;;;5057246;28;20025;-50
2021/07/18 09:59:38;;;;;;;25.20;16.90;;;;;;;;;;5056721;28;20100;-48
2021/07/18 10:02:05;;;;;;;49.58;40.65;;;;;;;;;;5056915;28;20113;-44
2021/07/18 10:04:38;;;;;;;12.13;9.07;;;;;;;;;;5037149;28;20036;-44
2021/07/18 10:07:06;;;;;;;18.95;12.35;;;;;;;;;;5021870;28;20383;-44
2021/07/18 10:09:32;;;;;;;18.40;9.68;;;;;;;;;;5022002;28;20127;-43
2021/07/18 10:11:59;;;;;;;8.70;7.07;;;;;;;;;;5021390;28;20033;-44
2021/07/18 10:14:25;;;;;;;17.52;13.23;;;;;;;;;;5021247;28;20134;-43
2021/07/18 10:16:53;;;;;;;16.48;11.30;;;;;;;;;;5021011;28;20033;-44
2021/07/18 10:19:20;;;;;;;7.95;4.00;;;;;;;;;;5021446;28;20030;-42
2021/07/18 10:21:46;;;;;;;6.85;4.43;;;;;;;;;;5021171;28;20053;-43
2021/07/18 10:24:14;;;;;;;10.32;5.97;;;;;;;;;;5020975;28;20028;-44
2021/07/18 10:26:41;;;;;;;9.57;7.07;;;;;;;;;;5020780;28;20021;-43
2021/07/18 10:29:09;;;;;;;12.77;8.50;;;;;;;;;;5021050;28;20041;-43
2021/07/18 10:31:40;;;;;;;14.02;10.15;;;;;;;;;;5020671;28;20307;-44
2021/07/18 10:34:07;;;;;;;15.70;10.57;;;;;;;;;;5020907;28;20068;-43
2021/07/18 10:36:33;;;;;;;45.17;37.83;;;;;;;;;;5021057;28;20028;-44
2021/07/18 10:39:00;;;;;;;203.23;182.02;;;;;;;;;;5020795;28;20037;-44
2021/07/18 10:41:40;;;;;;;43.28;33.85;;;;;;;;;;5021213;28;20025;-44
2021/07/18 10:44:11;;;;;;;29.73;22.52;;;;;;;;;;5021252;28;20021;-44
2021/07/18 10:46:42;;;;;;;166.00;144.10;;;;;;;;;;5020700;28;20379;-44
2021/07/18 10:49:15;;;;;;;53.42;36.97;;;;;;;;;;5020607;28;20109;-43
2021/07/18 10:51:51;;;;;;;9.65;5.32;;;;;;;;;;5020591;28;20040;-44
2021/07/18 10:54:22;;;;;;;10.00;7.30;;;;;;;;;;5020259;28;20032;-44
2021/07/18 10:56:49;;;;;;;8.07;4.55;;;;;;;;;;5020577;28;20378;-44
2021/07/18 10:59:42;;;;;;;50.10;38.22;;;;;;;;;;5020311;28;21102;-44
2021/07/18 11:02:12;;;;;;;74.68;54.58;;;;;;;;;;5020463;28;20636;-42
2021/07/18 11:04:59;;;;;;;16.38;11.48;;;;;;;;;;5020103;28;20034;-43
2021/07/18 11:07:26;;;;;;;20.55;16.60;;;;;;;;;;5020181;28;20037;-46
2021/07/18 11:09:55;;;;;;;19.20;14.35;;;;;;;;;;5020228;28;20033;-45
2021/07/18 11:12:41;;;;;;;9.93;7.18;;;;;;;;;;5020274;28;20025;-44
2021/07/18 11:15:17;;;;;;;19.58;10.45;;;;;;;;;;5020013;28;20598;-43
2021/07/18 11:17:57;;;;;;;4.88;4.03;;;;;;;;;;5020236;28;20075;-43
2021/07/18 11:20:36;;;;;;;95.77;81.20;;;;;;;;;;5020358;28;20083;-45
2021/07/18 11:23:04;;;;;;;270.20;240.40;;;;;;;;;;5019545;28;20303;-43
2021/07/18 11:25:40;;;;;;;53.03;35.75;;;;;;;;;;5020783;28;20071;-44
2021/07/18 11:28:26;;;;;;;10.80;8.35;;;;;;;;;;5019805;28;20750;-43
2021/07/18 11:30:52;;;;;;;11.82;8.32;;;;;;;;;;5019762;28;20082;-45
2021/07/18 11:33:28;;;;;;;13.88;6.80;;;;;;;;;;5019959;28;20037;-45
2021/07/18 11:35:55;;;;;;;60.10;45.28;;;;;;;;;;5019755;28;20840;-45
2021/07/18 11:38:21;;;;;;;20.92;15.48;;;;;;;;;;5019723;28;20037;-44
2021/07/18 11:40:48;;;;;;;39.03;26.23;;;;;;;;;;5019935;28;20025;-43
2021/07/18 11:43:14;;;;;;;15.23;11.18;;;;;;;;;;5019734;28;20025;-42
2021/07/18 11:45:40;;;;;;;15.57;12.73;;;;;;;;;;5020027;28;20032;-43
2021/07/18 11:48:06;;;;;;;13.32;9.45;;;;;;;;;;5019147;28;20060;-43
2021/07/18 11:50:32;;;;;;;9.93;6.63;;;;;;;;;;5019544;28;20598;-43
2021/07/18 11:53:02;;;;;;;10.77;8.48;;;;;;;;;;5019289;28;20041;-44
2021/07/18 11:55:29;;;;;;;12.68;7.05;;;;;;;;;;5019529;28;20033;-43
2021/07/18 11:57:55;;;;;;;8.57;6.28;;;;;;;;;;5019735;28;20409;-43
2021/07/18 12:00:22;;;;;;;20.10;15.30;;;;;;;;;;5019339;28;20031;-43
2021/07/18 12:02:51;;;;;;;11.52;8.07;;;;;;;;;;5019506;28;20179;-49
2021/07/18 12:05:17;;;;;;;8.07;4.90;;;;;;;;;;5019670;28;20052;-43
2021/07/18 12:07:43;;;;;;;6.13;4.40;;;;;;;;;;5019676;28;20052;-42
2021/07/18 12:10:19;;;;;;;8.63;4.53;;;;;;;;;;5019403;28;20029;-43
2021/07/18 12:12:48;;;;;;;10.38;4.55;;;;;;;;;;5019280;28;20099;-42
2021/07/18 12:15:14;;;;;;;7.07;5.55;;;;;;;;;;5018402;28;20072;-43
2021/07/18 12:17:40;;;;;;;5.93;5.32;;;;;;;;;;5018798;28;20029;-43
2021/07/18 12:20:07;;;;;;;10.05;5.03;;;;;;;;;;5018449;28;20033;-45
2021/07/18 12:22:33;;;;;;;7.07;4.90;;;;;;;;;;5019228;28;20021;-44
2021/07/18 12:24:59;;;;;;;6.57;4.65;;;;;;;;;;5019034;28;20148;-43
2021/07/18 12:27:27;;;;;;;9.60;4.50;;;;;;;;;;5018901;28;20032;-47
2021/07/18 12:29:54;;;;;;;8.73;4.78;;;;;;;;;;5019053;28;20032;-44
2021/07/18 12:32:21;;;;;;;11.00;4.50;;;;;;;;;;5018339;28;20098;-43
2021/07/18 12:34:49;;;;;;;8.88;5.13;;;;;;;;;;5019213;28;20025;-41
2021/07/18 12:37:15;;;;;;;10.10;5.28;;;;;;;;;;5018677;28;20130;-41
2021/07/18 12:39:42;;;;;;;6.70;5.80;;;;;;;;;;5018687;28;20017;-43
2021/07/18 12:42:19;;;;;;;6.00;5.00;;;;;;;;;;5018850;28;20029;-41
2021/07/18 12:44:47;;;;;;;10.57;7.75;;;;;;;;;;5018520;28;20036;-41
2021/07/18 12:47:32;;;;;;;7.13;5.18;;;;;;;;;;5018696;28;20026;-41
2021/07/18 12:50:17;;;;;;;8.35;5.03;;;;;;;;;;5018708;28;20021;-41
2021/07/18 12:52:56;;;;;;;7.30;4.22;;;;;;;;;;5017949;28;20036;-41
2021/07/18 12:55:26;;;;;;;8.50;5.50;;;;;;;;;;5018516;28;20045;-41
2021/07/18 12:57:52;;;;;;;8.98;5.47;;;;;;;;;;5018258;28;20022;-41
2021/07/18 13:00:21;;;;;;;10.20;4.90;;;;;;;;;;5018620;28;20044;-42
2021/07/18 13:02:47;;;;;;;9.35;5.22;;;;;;;;;;5018870;28;20035;-42
2021/07/18 13:05:13;;;;;;;10.18;7.28;;;;;;;;;;5018371;28;20036;-42
2021/07/18 13:07:40;;;;;;;9.57;5.20;;;;;;;;;;5017928;28;20986;-42
2021/07/18 13:10:10;;;;;;;6.10;4.97;;;;;;;;;;5018149;28;20025;-42
2021/07/18 13:12:37;;;;;;;13.77;4.43;;;;;;;;;;5017659;28;20034;-43
2021/07/18 13:15:13;;;;;;;7.45;4.13;;;;;;;;;;5018668;28;20049;-42
2021/07/18 13:17:59;;;;;;;9.77;4.82;;;;;;;;;;5018174;28;20033;-42
2021/07/18 13:20:26;;;;;;;8.02;4.22;;;;;;;;;;5017772;28;20029;-42
2021/07/18 13:22:53;;;;;;;10.88;4.20;;;;;;;;;;5018063;28;20039;-43
2021/07/18 13:25:29;;;;;;;13.18;5.07;;;;;;;;;;5017743;28;20095;-42
2021/07/18 13:27:57;;;;;;;7.18;6.05;;;;;;;;;;5017727;28;20025;-42
2021/07/18 13:30:25;;;;;;;7.13;6.30;;;;;;;;;;5018102;28;20036;-41
2021/07/18 13:32:52;;;;;;;6.65;5.40;;;;;;;;;;5018097;28;20524;-42
2021/07/18 13:35:19;;;;;;;6.95;4.43;;;;;;;;;;5018252;28;20115;-41
2021/07/18 13:37:53;;;;;;;6.88;3.80;;;;;;;;;;5018015;28;20030;-42
2021/07/18 13:40:22;;;;;;;6.60;4.25;;;;;;;;;;5017921;28;20597;-41
2021/07/18 13:42:48;;;;;;;7.25;4.68;;;;;;;;;;5017928;28;20382;-42
2021/07/18 13:45:14;;;;;;;6.53;5.20;;;;;;;;;;5017413;28;20043;-41
2021/07/18 13:47:40;;;;;;;6.05;5.03;;;;;;;;;;5017568;28;20029;-42
2021/07/18 13:50:06;;;;;;;7.72;5.32;;;;;;;;;;5017595;28;20025;-41
2021/07/18 13:52:35;;;;;;;8.88;5.47;;;;;;;;;;5017569;28;20030;-42
2021/07/18 13:55:01;;;;;;;10.25;5.75;;;;;;;;;;5017433;28;20164;-42
2021/07/18 13:57:27;;;;;;;9.35;6.38;;;;;;;;;;5015998;28;20033;-42
2021/07/18 13:59:53;;;;;;;8.25;5.60;;;;;;;;;;5017318;28;20029;-42
2021/07/18 14:02:19;;;;;;;6.53;5.20;;;;;;;;;;5017644;28;20580;-42
2021/07/18 14:04:45;;;;;;;8.38;5.78;;;;;;;;;;5017560;28;20025;-42
2021/07/18 14:07:11;;;;;;;10.77;6.28;;;;;;;;;;5017271;28;20087;-42
2021/07/18 14:09:38;;;;;;;7.97;6.10;;;;;;;;;;5017599;28;20033;-42
2021/07/18 14:12:04;;;;;;;8.32;5.70;;;;;;;;;;5017345;28;20300;-42
2021/07/18 14:14:30;;;;;;;11.85;5.32;;;;;;;;;;5017263;28;20037;-42
2021/07/18 14:16:56;;;;;;;9.10;6.68;;;;;;;;;;5017576;28;20379;-42
2021/07/18 14:19:22;;;;;;;11.15;6.45;;;;;;;;;;5017385;28;20088;-42
2021/07/18 14:21:48;;;;;;;10.00;6.03;;;;;;;;;;5017853;28;20473;-42
2021/07/18 14:24:14;;;;;;;10.73;6.07;;;;;;;;;;5016840;28;20049;-42
2021/07/18 14:26:40;;;;;;;15.13;5.97;;;;;;;;;;5017241;28;20289;-43
2021/07/18 14:29:06;;;;;;;16.02;7.05;;;;;;;;;;5017326;28;20473;-43
2021/07/18 14:31:33;;;;;;;12.20;7.13;;;;;;;;;;5017131;28;20539;-42
2021/07/18 14:33:59;;;;;;;13.73;8.10;;;;;;;;;;5017139;28;20358;-41